Time,TemperatureF,DewpointF,PressureIn,WindDirection,WindDirectionDegrees,WindSpeedMPH,WindSpeedGustMPH,Humidity,HourlyPrecipIn,Conditions,Clouds,dailyrainin,SolarRadiationWatts/m^2,SoftwareType,DateUTC
2014-01-20 00:00:00,28.8,21.9,29.71,West,279,0.0,3.0,75,0.00,CLR,,0.00,0.0,WeatherDisplay:10.37,2014-01-20 05:00:00,
2014-01-20 00:05:00,28.7,21.8,29.71,West,279,0.0,3.0,75,0.00,CLR,,0.00,0.0,WeatherDisplay:10.37,2014-01-20 05:05:00,
2014-01-20 00:09:00,28.7,21.8,29.71,West,279,0.0,3.0,75,0.00,CLR,,0.00,0.0,WeatherDisplay:10.37,2014-01-20 05:09:00,
2014-01-20 00:15:00,28.6,21.7,29.71,West,279,0.0,3.0,75,0.00,CLR,,0.00,0.0,WeatherDisplay:10.37,2014-01-20 05:15:00,
2014-01-20 00:20:00,28.6,21.7,29.70,West,279,0.0,1.0,75,0.00,CLR,,0.00,0.0,WeatherDisplay:10.37,2014-01-20 05:20:00,
2014-01-20 00:24:00,28.5,21.6,29.70,West,279,1.0,3.0,75,0.00,CLR,,0.00,0.0,WeatherDisplay:10.37,2014-01-20 05:24:00,
2014-01-20 00:30:00,28.4,21.8,29.70,West,279,1.0,3.0,76,0.00,CLR,,0.00,0.0,WeatherDisplay:10.37,2014-01-20 05:30:00,
2014-01-20 00:35:00,28.3,22.0,29.70,West,279,1.0,3.0,77,0.00,CLR,,0.00,0.0,WeatherDisplay:10.37,2014-01-20 05:35:00,
2014-01-20 00:40:00,28.3,22.3,29.70,West,279,1.0,3.0,78,0.00,CLR,,0.00,0.0,WeatherDisplay:10.37,2014-01-20 05:40:00,
2014-01-20 00:45:00,28.5,22.8,29.70,West,278,1.0,3.0,79,0.00,CLR,,0.00,0.0,WeatherDisplay:10.37,2014-01-20 05:45:00,
2014-01-20 00:50:00,28.9,23.5,29.70,West,277,1.0,4.0,80,0.00,CLR,,0.00,0.0,WeatherDisplay:10.37,2014-01-20 05:50:00,
2014-01-20 00:55:00,29.5,24.0,29.70,West,272,1.0,4.0,80,0.00,CLR,,0.00,0.0,WeatherDisplay:10.37,2014-01-20 05:55:00,
2014-01-20 01:00:00,29.9,24.5,29.70,West,270,2.0,4.0,80,0.00,CLR,,0.00,0.0,WeatherDisplay:10.37,2014-01-20 06:00:00,
2014-01-20 01:04:00,30.2,24.5,29.70,West,270,1.0,4.0,79,0.00,CLR,,0.00,0.0,WeatherDisplay:10.37,2014-01-20 06:04:00,
2014-01-20 01:10:00,30.5,24.7,29.70,West,270,1.0,3.0,79,0.00,CLR,,0.00,0.0,WeatherDisplay:10.37,2014-01-20 06:10:00,
2014-01-20 01:14:00,30.9,24.8,29.70,West,264,3.0,8.0,78,0.00,CLR,,0.00,0.0,WeatherDisplay:10.37,2014-01-20 06:14:00,
2014-01-20 01:19:00,31.2,24.9,29.70,West,271,3.0,7.0,77,0.00,CLR,,0.00,0.0,WeatherDisplay:10.37,2014-01-20 06:19:00,
2014-01-20 01:24:00,31.5,24.8,29.70,West,281,2.0,4.0,76,0.00,CLR,,0.00,0.0,WeatherDisplay:10.37,2014-01-20 06:24:00,
2014-01-20 01:30:00,31.6,24.9,29.70,WNW,286,2.0,5.0,76,0.00,CLR,,0.00,0.0,WeatherDisplay:10.37,2014-01-20 06:30:00,
2014-01-20 01:35:00,31.7,25.0,29.70,WNW,291,2.0,5.0,76,0.00,CLR,,0.00,0.0,WeatherDisplay:10.37,2014-01-20 06:35:00,
2014-01-20 01:40:00,31.7,24.7,29.70,West,279,3.0,7.0,75,0.00,CLR,,0.00,0.0,WeatherDisplay:10.37,2014-01-20 06:40:00,
2014-01-20 01:44:00,31.7,24.7,29.70,West,260,2.0,5.0,75,0.00,CLR,,0.00,0.0,WeatherDisplay:10.37,2014-01-20 06:44:00,
2014-01-20 01:50:00,31.6,24.6,29.70,WSW,256,1.0,2.0,75,0.00,CLR,,0.00,0.0,WeatherDisplay:10.37,2014-01-20 06:50:00,
2014-01-20 01:55:00,31.5,24.5,29.70,WSW,256,1.0,3.0,75,0.00,CLR,,0.00,0.0,WeatherDisplay:10.37,2014-01-20 06:55:00,
2014-01-20 01:59:00,31.4,24.4,29.69,WSW,256,1.0,5.0,75,0.00,CLR,,0.00,0.0,WeatherDisplay:10.37,2014-01-20 06:59:00,
2014-01-20 02:04:00,31.3,24.3,29.69,WSW,256,1.0,3.0,75,0.00,CLR,,0.00,0.0,WeatherDisplay:10.37,2014-01-20 07:04:00,
2014-01-20 02:10:00,31.2,24.2,29.69,WSW,256,3.0,6.0,75,0.00,CLR,,0.00,0.0,WeatherDisplay:10.37,2014-01-20 07:10:00,
2014-01-20 02:15:00,31.1,24.4,29.69,WSW,256,1.0,6.0,76,0.00,CLR,,0.00,0.0,WeatherDisplay:10.37,2014-01-20 07:15:00,
2014-01-20 02:20:00,31.0,24.3,29.69,WSW,256,1.0,3.0,76,0.00,CLR,,0.00,0.0,WeatherDisplay:10.37,2014-01-20 07:20:00,
2014-01-20 02:24:00,30.9,24.2,29.68,WSW,256,1.0,3.0,76,0.00,CLR,,0.00,0.0,WeatherDisplay:10.37,2014-01-20 07:24:00,
2014-01-20 02:29:00,30.8,24.1,29.68,WSW,256,1.0,2.0,76,0.00,CLR,,0.00,0.0,WeatherDisplay:10.37,2014-01-20 07:29:00,
2014-01-20 02:35:00,30.7,24.0,29.69,WSW,256,0.0,3.0,76,0.00,CLR,,0.00,0.0,WeatherDisplay:10.37,2014-01-20 07:35:00,
2014-01-20 02:40:00,30.6,23.9,29.68,WSW,256,0.0,2.0,76,0.00,CLR,,0.00,0.0,WeatherDisplay:10.37,2014-01-20 07:40:00,
2014-01-20 02:44:00,30.5,23.8,29.69,WSW,256,1.0,3.0,76,0.00,CLR,,0.00,0.0,WeatherDisplay:10.37,2014-01-20 07:44:00,
2014-01-20 02:50:00,30.3,23.6,29.69,WSW,256,0.0,1.0,76,0.00,CLR,,0.00,0.0,WeatherDisplay:10.37,2014-01-20 07:50:00,
2014-01-20 02:55:00,30.2,23.5,29.69,WSW,256,1.0,2.0,76,0.00,CLR,,0.00,0.0,WeatherDisplay:10.37,2014-01-20 07:55:00,
2014-01-20 03:00:00,30.0,23.7,29.69,WSW,256,1.0,2.0,77,0.00,CLR,,0.00,0.0,WeatherDisplay:10.37,2014-01-20 08:00:00,
2014-01-20 03:04:00,29.8,23.5,29.69,WSW,256,2.0,3.0,77,0.00,CLR,,0.00,0.0,WeatherDisplay:10.37,2014-01-20 08:04:00,
2014-01-20 03:10:00,29.6,23.3,29.69,WSW,256,2.0,3.0,77,0.00,CLR,,0.00,0.0,WeatherDisplay:10.37,2014-01-20 08:10:00,
2014-01-20 03:14:00,29.4,23.4,29.68,WSW,256,0.0,3.0,78,0.00,CLR,,0.00,0.0,WeatherDisplay:10.37,2014-01-20 08:14:00,
2014-01-20 03:19:00,29.2,23.2,29.69,WSW,256,1.0,3.0,78,0.00,CLR,,0.00,0.0,WeatherDisplay:10.37,2014-01-20 08:19:00,
2014-01-20 03:25:00,29.2,23.5,29.68,WSW,256,2.0,6.0,79,0.00,CLR,,0.00,0.0,WeatherDisplay:10.37,2014-01-20 08:25:00,
2014-01-20 03:29:00,29.3,23.6,29.68,WSW,256,0.0,2.0,79,0.00,CLR,,0.00,0.0,WeatherDisplay:10.37,2014-01-20 08:29:00,
2014-01-20 03:35:00,29.3,23.6,29.68,WSW,256,1.0,3.0,79,0.00,CLR,,0.00,0.0,WeatherDisplay:10.37,2014-01-20 08:35:00,
2014-01-20 03:39:00,29.2,23.5,29.68,WSW,256,0.0,3.0,79,0.00,CLR,,0.00,0.0,WeatherDisplay:10.37,2014-01-20 08:39:00,
2014-01-20 03:45:00,29.2,23.5,29.68,WSW,256,0.0,3.0,79,0.00,CLR,,0.00,0.0,WeatherDisplay:10.37,2014-01-20 08:45:00,
2014-01-20 03:49:00,29.0,23.0,29.67,WSW,256,0.0,2.0,78,0.00,CLR,,0.00,0.0,WeatherDisplay:10.37,2014-01-20 08:49:00,
2014-01-20 03:54:00,28.8,22.8,29.67,WSW,256,0.0,2.0,78,0.00,CLR,,0.00,0.0,WeatherDisplay:10.37,2014-01-20 08:54:00,
2014-01-20 04:00:00,28.6,22.9,29.67,WSW,256,1.0,3.0,79,0.00,CLR,,0.00,0.0,WeatherDisplay:10.37,2014-01-20 09:00:00,
2014-01-20 04:05:00,28.3,22.6,29.67,WSW,256,1.0,3.0,79,0.00,CLR,,0.00,0.0,WeatherDisplay:10.37,2014-01-20 09:05:00,
2014-01-20 04:09:00,28.1,22.4,29.67,WSW,256,1.0,3.0,79,0.00,CLR,,0.00,0.0,WeatherDisplay:10.37,2014-01-20 09:09:00,
2014-01-20 04:14:00,27.8,22.4,29.67,WSW,256,0.0,3.0,80,0.00,CLR,,0.00,0.0,WeatherDisplay:10.37,2014-01-20 09:14:00,
2014-01-20 04:20:00,27.6,22.2,29.67,WSW,256,0.0,2.0,80,0.00,CLR,,0.00,0.0,WeatherDisplay:10.37,2014-01-20 09:20:00,
2014-01-20 04:25:00,27.4,22.3,29.67,WSW,256,1.0,3.0,81,0.00,CLR,,0.00,0.0,WeatherDisplay:10.37,2014-01-20 09:25:00,
2014-01-20 04:30:00,27.2,22.1,29.67,WSW,256,2.0,3.0,81,0.00,CLR,,0.00,0.0,WeatherDisplay:10.37,2014-01-20 09:30:00,
2014-01-20 04:34:00,27.1,22.3,29.67,WSW,256,0.0,3.0,82,0.00,CLR,,0.00,0.0,WeatherDisplay:10.37,2014-01-20 09:34:00,
2014-01-20 04:39:00,27.0,22.2,29.67,WSW,256,1.0,3.0,82,0.00,CLR,,0.00,0.0,WeatherDisplay:10.37,2014-01-20 09:39:00,
2014-01-20 04:44:00,27.0,22.2,29.67,WSW,256,1.0,3.0,82,0.00,CLR,,0.00,0.0,WeatherDisplay:10.37,2014-01-20 09:44:00,
2014-01-20 04:50:00,26.9,22.1,29.67,WSW,256,1.0,3.0,82,0.00,CLR,,0.00,0.0,WeatherDisplay:10.37,2014-01-20 09:50:00,
2014-01-20 04:54:00,26.7,21.9,29.67,WSW,256,1.0,1.0,82,0.00,CLR,,0.00,0.0,WeatherDisplay:10.37,2014-01-20 09:54:00,
2014-01-20 05:00:00,26.3,21.8,29.66,WSW,256,1.0,3.0,83,0.00,CLR,,0.00,0.0,WeatherDisplay:10.37,2014-01-20 10:00:00,
2014-01-20 05:04:00,26.0,21.5,29.66,WSW,256,0.0,2.0,83,0.00,CLR,,0.00,0.0,WeatherDisplay:10.37,2014-01-20 10:04:00,
2014-01-20 05:10:00,25.7,21.5,29.66,WSW,256,0.0,2.0,84,0.00,CLR,,0.00,0.0,WeatherDisplay:10.37,2014-01-20 10:10:00,
2014-01-20 05:15:00,25.3,21.2,29.66,WSW,256,0.0,2.0,84,0.00,CLR,,0.00,0.0,WeatherDisplay:10.37,2014-01-20 10:15:00,
2014-01-20 05:19:00,25.0,21.2,29.66,WSW,256,0.0,2.0,85,0.00,CLR,,0.00,0.0,WeatherDisplay:10.37,2014-01-20 10:19:00,
2014-01-20 05:24:00,24.7,20.8,29.66,WSW,256,1.0,3.0,85,0.00,CLR,,0.00,0.0,WeatherDisplay:10.37,2014-01-20 10:24:00,
2014-01-20 05:30:00,24.5,20.9,29.66,WSW,256,0.0,2.0,86,0.00,CLR,,0.00,0.0,WeatherDisplay:10.37,2014-01-20 10:30:00,
2014-01-20 05:34:00,24.4,20.8,29.66,WSW,256,1.0,2.0,86,0.00,CLR,,0.00,0.0,WeatherDisplay:10.37,2014-01-20 10:34:00,
2014-01-20 05:40:00,24.3,20.7,29.66,WSW,256,0.0,2.0,86,0.00,CLR,,0.00,0.0,WeatherDisplay:10.37,2014-01-20 10:40:00,
2014-01-20 05:44:00,24.2,20.9,29.66,WSW,256,0.0,2.0,87,0.00,CLR,,0.00,0.0,WeatherDisplay:10.37,2014-01-20 10:44:00,
2014-01-20 05:49:00,24.2,20.9,29.66,WSW,256,1.0,3.0,87,0.00,CLR,,0.00,0.0,WeatherDisplay:10.37,2014-01-20 10:49:00,
2014-01-20 05:54:00,24.2,20.9,29.66,WSW,256,0.0,1.0,87,0.00,CLR,,0.00,0.0,WeatherDisplay:10.37,2014-01-20 10:54:00,
2014-01-20 05:59:00,24.2,20.9,29.66,WSW,256,0.0,1.0,87,0.00,CLR,,0.00,0.0,WeatherDisplay:10.37,2014-01-20 10:59:00,
2014-01-20 06:04:00,24.2,20.9,29.66,WSW,256,0.0,2.0,87,0.00,CLR,,0.00,0.0,WeatherDisplay:10.37,2014-01-20 11:04:00,
2014-01-20 06:10:00,24.1,20.8,29.66,WSW,256,1.0,2.0,87,0.00,CLR,,0.00,0.0,WeatherDisplay:10.37,2014-01-20 11:10:00,
2014-01-20 06:14:00,24.0,20.7,29.66,WSW,256,0.0,1.0,87,0.00,CLR,,0.00,0.0,WeatherDisplay:10.37,2014-01-20 11:14:00,
2014-01-20 06:20:00,24.0,21.0,29.66,WSW,256,0.0,1.0,88,0.00,CLR,,0.00,0.0,WeatherDisplay:10.37,2014-01-20 11:20:00,
2014-01-20 06:24:00,24.0,21.0,29.66,WSW,256,0.0,2.0,88,0.00,CLR,,0.00,0.0,WeatherDisplay:10.37,2014-01-20 11:24:00,
2014-01-20 06:30:00,23.9,20.9,29.66,WSW,256,1.0,2.0,88,0.00,CLR,,0.00,0.0,WeatherDisplay:10.37,2014-01-20 11:30:00,
2014-01-20 06:35:00,23.9,20.9,29.66,WSW,256,0.0,2.0,88,0.00,CLR,,0.00,0.0,WeatherDisplay:10.37,2014-01-20 11:35:00,
2014-01-20 06:39:00,23.8,20.8,29.66,WSW,256,0.0,2.0,88,0.00,CLR,,0.00,0.0,WeatherDisplay:10.37,2014-01-20 11:39:00,
2014-01-20 06:45:00,23.7,20.7,29.66,WSW,256,0.0,1.0,88,0.00,CLR,,0.00,0.0,WeatherDisplay:10.37,2014-01-20 11:45:00,
2014-01-20 06:49:00,23.6,20.6,29.66,WSW,256,0.0,1.0,88,0.00,CLR,,0.00,0.0,WeatherDisplay:10.37,2014-01-20 11:49:00,
2014-01-20 06:54:00,23.6,20.6,29.66,WSW,256,0.0,2.0,88,0.00,CLR,,0.00,0.0,WeatherDisplay:10.37,2014-01-20 11:54:00,
2014-01-20 06:59:00,23.5,20.5,29.66,WSW,256,0.0,2.0,88,0.00,CLR,,0.00,0.0,WeatherDisplay:10.37,2014-01-20 11:59:00,
2014-01-20 07:04:00,23.5,20.5,29.66,WSW,256,1.0,3.0,88,0.00,CLR,,0.00,0.0,WeatherDisplay:10.37,2014-01-20 12:04:00,
2014-01-20 07:09:00,23.4,20.4,29.66,WSW,256,0.0,3.0,88,0.00,CLR,,0.00,0.0,WeatherDisplay:10.37,2014-01-20 12:09:00,
2014-01-20 07:15:00,23.4,20.6,29.66,WSW,256,1.0,2.0,89,0.00,CLR,,0.00,0.0,WeatherDisplay:10.37,2014-01-20 12:15:00,
2014-01-20 07:19:00,23.3,20.5,29.67,WSW,256,0.0,2.0,89,0.00,CLR,,0.00,0.0,WeatherDisplay:10.37,2014-01-20 12:19:00,
2014-01-20 07:24:00,23.2,20.4,29.67,WSW,256,0.0,2.0,89,0.00,CLR,,0.00,0.0,WeatherDisplay:10.37,2014-01-20 12:24:00,
2014-01-20 07:30:00,23.2,20.4,29.67,WSW,256,0.0,2.0,89,0.00,CLR,,0.00,0.0,WeatherDisplay:10.37,2014-01-20 12:30:00,
2014-01-20 07:34:00,23.3,20.5,29.67,WSW,256,1.0,3.0,89,0.00,CLR,,0.00,5.0,WeatherDisplay:10.37,2014-01-20 12:34:00,
2014-01-20 07:40:00,23.6,20.8,29.66,WSW,256,2.0,3.0,89,0.00,CLR,,0.00,7.0,WeatherDisplay:10.37,2014-01-20 12:40:00,
2014-01-20 07:44:00,24.1,21.6,29.65,SSW,195,2.0,4.0,90,0.00,CLR,,0.00,9.0,WeatherDisplay:10.37,2014-01-20 12:44:00,
2014-01-20 07:49:00,24.5,21.7,29.66,SE,125,1.0,2.0,89,0.00,CLR,,0.00,11.0,WeatherDisplay:10.37,2014-01-20 12:49:00,
2014-01-20 07:55:00,24.5,21.7,29.66,ESE,117,0.0,3.0,89,0.00,CLR,,0.00,12.0,WeatherDisplay:10.37,2014-01-20 12:55:00,
2014-01-20 07:59:00,24.2,21.2,29.67,ESE,117,0.0,2.0,88,0.00,CLR,,0.00,19.0,WeatherDisplay:10.37,2014-01-20 12:59:00,
2014-01-20 08:04:00,24.0,21.0,29.67,ESE,117,1.0,2.0,88,0.00,CLR,,0.00,25.0,WeatherDisplay:10.37,2014-01-20 13:04:00,
2014-01-20 08:09:00,24.0,21.0,29.67,ESE,117,1.0,2.0,88,0.00,CLR,,0.00,54.0,WeatherDisplay:10.37,2014-01-20 13:09:00,
2014-01-20 08:14:00,24.3,21.5,29.67,ESE,117,2.0,3.0,89,0.00,CLR,,0.00,60.0,WeatherDisplay:10.37,2014-01-20 13:14:00,
2014-01-20 08:19:00,24.9,22.1,29.67,ESE,117,1.0,4.0,89,0.00,CLR,,0.00,72.0,WeatherDisplay:10.37,2014-01-20 13:19:00,
2014-01-20 08:24:00,25.6,22.8,29.67,ESE,122,2.0,4.0,89,0.00,CLR,,0.00,51.0,WeatherDisplay:10.37,2014-01-20 13:24:00,
2014-01-20 08:30:00,26.1,23.3,29.67,SE,125,2.0,3.0,89,0.00,CLR,,0.00,95.0,WeatherDisplay:10.37,2014-01-20 13:30:00,
2014-01-20 08:34:00,27.2,24.4,29.68,SE,126,2.0,3.0,89,0.00,CLR,,0.00,77.0,WeatherDisplay:10.37,2014-01-20 13:34:00,
2014-01-20 08:40:00,27.7,24.6,29.68,SE,127,2.0,3.0,88,0.00,CLR,,0.00,134.0,WeatherDisplay:10.37,2014-01-20 13:40:00,
2014-01-20 08:45:00,28.4,25.3,29.67,SE,127,1.0,3.0,88,0.00,CLR,,0.00,155.0,WeatherDisplay:10.37,2014-01-20 13:45:00,
2014-01-20 08:50:00,28.8,25.1,29.68,SE,127,0.0,2.0,86,0.00,CLR,,0.00,200.0,WeatherDisplay:10.37,2014-01-20 13:50:00,
2014-01-20 08:54:00,28.9,25.0,29.68,SE,127,0.0,1.0,85,0.00,CLR,,0.00,209.0,WeatherDisplay:10.37,2014-01-20 13:54:00,
2014-01-20 08:59:00,29.3,25.4,29.68,SE,127,0.0,1.0,85,0.00,CLR,,0.00,221.0,WeatherDisplay:10.37,2014-01-20 13:59:00,
2014-01-20 09:04:00,29.8,25.8,29.68,SE,127,0.0,1.0,85,0.00,CLR,,0.00,230.0,WeatherDisplay:10.37,2014-01-20 14:04:00,
2014-01-20 09:09:00,30.4,26.2,29.68,SE,127,0.0,1.0,84,0.00,CLR,,0.00,237.0,WeatherDisplay:10.37,2014-01-20 14:09:00,
2014-01-20 09:15:00,30.9,26.6,29.68,SE,127,0.0,0.0,84,0.00,CLR,,0.00,253.0,WeatherDisplay:10.37,2014-01-20 14:15:00,
2014-01-20 09:19:00,31.5,27.2,29.68,SE,127,0.0,1.0,84,0.00,CLR,,0.00,267.0,WeatherDisplay:10.37,2014-01-20 14:19:00,
2014-01-20 09:24:00,32.3,27.8,29.68,SE,127,0.0,0.0,83,0.00,CLR,,0.00,278.0,WeatherDisplay:10.37,2014-01-20 14:24:00,
2014-01-20 09:30:00,33.4,28.2,29.68,SE,127,0.0,1.0,81,0.00,CLR,,0.00,287.0,WeatherDisplay:10.37,2014-01-20 14:30:00,
2014-01-20 09:40:00,34.8,28.3,29.68,SSW,197,3.0,7.0,77,0.00,CLR,,0.00,313.0,WeatherDisplay:10.37,2014-01-20 14:40:00,
2014-01-20 09:44:00,36.0,28.2,29.68,West,262,0.0,7.0,73,0.00,CLR,,0.00,320.0,WeatherDisplay:10.37,2014-01-20 14:44:00,
2014-01-20 09:49:00,37.3,28.0,29.68,WSW,253,3.0,8.0,69,0.00,CLR,,0.00,330.0,WeatherDisplay:10.37,2014-01-20 14:49:00,
2014-01-20 09:54:00,38.3,27.9,29.68,WSW,252,1.0,6.0,66,0.00,CLR,,0.00,339.0,WeatherDisplay:10.37,2014-01-20 14:54:00,
2014-01-20 09:59:00,39.1,28.0,29.68,WSW,252,3.0,5.0,64,0.00,CLR,,0.00,353.0,WeatherDisplay:10.37,2014-01-20 14:59:00,
2014-01-20 10:04:00,39.6,28.4,29.68,WSW,245,5.0,5.0,64,0.00,CLR,,0.00,360.0,WeatherDisplay:10.37,2014-01-20 15:04:00,
2014-01-20 10:09:00,40.4,28.8,29.68,WSW,238,2.0,5.0,63,0.00,CLR,,0.00,388.0,WeatherDisplay:10.37,2014-01-20 15:09:00,
2014-01-20 10:14:00,41.1,29.1,29.68,SW,226,2.0,7.0,62,0.00,CLR,,0.00,427.0,WeatherDisplay:10.37,2014-01-20 15:14:00,
2014-01-20 10:19:00,41.8,29.7,29.68,SW,228,1.0,8.0,62,0.00,CLR,,0.00,510.0,WeatherDisplay:10.37,2014-01-20 15:19:00,
2014-01-20 10:24:00,42.4,29.5,29.68,WSW,240,3.0,7.0,60,0.00,CLR,,0.00,190.0,WeatherDisplay:10.37,2014-01-20 15:24:00,
2014-01-20 10:30:00,42.8,29.4,29.68,SW,236,3.0,8.0,59,0.00,CLR,,0.00,167.0,WeatherDisplay:10.37,2014-01-20 15:30:00,
2014-01-20 10:34:00,42.9,29.1,29.68,WSW,250,1.0,10.0,58,0.00,CLR,,0.00,144.0,WeatherDisplay:10.37,2014-01-20 15:34:00,
2014-01-20 10:39:00,42.8,28.6,29.68,WSW,255,3.0,8.0,57,0.00,CLR,,0.00,120.0,WeatherDisplay:10.37,2014-01-20 15:39:00,
2014-01-20 10:44:00,42.7,28.5,29.68,WSW,253,2.0,9.0,57,0.00,CLR,,0.00,160.0,WeatherDisplay:10.37,2014-01-20 15:44:00,
2014-01-20 10:49:00,42.7,28.5,29.68,West,259,5.0,6.0,57,0.00,CLR,,0.00,134.0,WeatherDisplay:10.37,2014-01-20 15:49:00,
2014-01-20 10:54:00,42.7,28.9,29.68,West,265,5.0,8.0,58,0.00,CLR,,0.00,125.0,WeatherDisplay:10.37,2014-01-20 15:54:00,
2014-01-20 10:59:00,42.7,28.9,29.68,WSW,253,5.0,12.0,58,0.00,CLR,,0.00,202.0,WeatherDisplay:10.37,2014-01-20 15:59:00,
2014-01-20 11:04:00,42.8,29.0,29.68,WSW,252,3.0,5.0,58,0.00,BKN,,0.00,195.0,WeatherDisplay:10.37,2014-01-20 16:04:00,
2014-01-20 11:09:00,42.9,29.1,29.68,WSW,258,5.0,10.0,58,0.00,BKN,,0.00,221.0,WeatherDisplay:10.37,2014-01-20 16:09:00,
2014-01-20 11:14:00,43.1,28.9,29.68,West,261,6.0,10.0,57,0.00,BKN,,0.00,221.0,WeatherDisplay:10.37,2014-01-20 16:14:00,
2014-01-20 11:20:00,43.1,28.9,29.68,West,265,9.0,12.0,57,0.00,BKN,,0.00,202.0,WeatherDisplay:10.37,2014-01-20 16:20:00,
2014-01-20 11:24:00,43.2,29.0,29.68,WSW,256,5.0,9.0,57,0.00,BKN,,0.00,204.0,WeatherDisplay:10.37,2014-01-20 16:24:00,
2014-01-20 11:29:00,43.2,29.0,29.67,WSW,244,1.0,7.0,57,0.00,BKN,,0.00,223.0,WeatherDisplay:10.37,2014-01-20 16:29:00,
2014-01-20 11:34:00,43.4,29.2,29.67,WSW,253,5.0,8.0,57,0.00,BKN,,0.00,232.0,WeatherDisplay:10.37,2014-01-20 16:34:00,
2014-01-20 11:40:00,43.4,29.2,29.67,West,262,5.0,7.0,57,0.00,BKN,,0.00,225.0,WeatherDisplay:10.37,2014-01-20 16:40:00,
2014-01-20 11:44:00,43.4,29.2,29.67,West,259,3.0,6.0,57,0.00,BKN,,0.00,186.0,WeatherDisplay:10.37,2014-01-20 16:44:00,
2014-01-20 11:49:00,43.4,29.2,29.67,WSW,238,2.0,9.0,57,0.00,BKN,,0.00,141.0,WeatherDisplay:10.37,2014-01-20 16:49:00,
2014-01-20 11:54:00,43.4,29.6,29.67,WSW,247,6.0,8.0,58,0.00,BKN,,0.00,114.0,WeatherDisplay:10.37,2014-01-20 16:54:00,
2014-01-20 11:59:00,43.3,29.1,29.67,West,259,2.0,6.0,57,0.00,BKN,,0.00,123.0,WeatherDisplay:10.37,2014-01-20 16:59:00,
2014-01-20 12:04:00,43.2,29.4,29.66,West,262,1.0,7.0,58,0.00,BKN,,0.00,253.0,WeatherDisplay:10.37,2014-01-20 17:04:00,
2014-01-20 12:09:00,43.4,29.6,29.66,West,271,3.0,8.0,58,0.00,BKN,,0.00,281.0,WeatherDisplay:10.37,2014-01-20 17:09:00,
2014-01-20 12:14:00,44.0,31.0,29.66,West,280,3.0,12.0,60,0.00,BKN,,0.00,642.0,WeatherDisplay:10.37,2014-01-20 17:14:00,
2014-01-20 12:20:00,45.1,31.2,29.66,West,280,12.0,20.0,58,0.00,BKN,,0.00,589.0,WeatherDisplay:10.37,2014-01-20 17:20:00,
2014-01-20 12:30:00,45.1,30.7,29.66,West,268,8.0,13.0,57,0.00,BKN,,0.00,104.0,WeatherDisplay:10.37,2014-01-20 17:30:00,
2014-01-20 12:34:00,44.9,30.5,29.66,West,277,5.0,9.0,57,0.00,BKN,,0.00,114.0,WeatherDisplay:10.37,2014-01-20 17:34:00,
2014-01-20 12:39:00,44.6,30.7,29.66,WNW,284,6.0,10.0,58,0.00,BKN,,0.00,148.0,WeatherDisplay:10.37,2014-01-20 17:39:00,
2014-01-20 12:45:00,44.5,30.6,29.65,WNW,285,7.0,12.0,58,0.00,BKN,,0.00,186.0,WeatherDisplay:10.37,2014-01-20 17:45:00,
2014-01-20 12:49:00,44.5,31.1,29.66,WNW,286,7.0,10.0,59,0.00,BKN,,0.00,274.0,WeatherDisplay:10.37,2014-01-20 17:49:00,
2014-01-20 12:54:00,44.6,30.7,29.66,West,278,10.0,16.0,58,0.00,BKN,,0.00,158.0,WeatherDisplay:10.37,2014-01-20 17:54:00,
2014-01-20 12:59:00,44.6,30.7,29.66,West,271,8.0,15.0,58,0.00,BKN,,0.00,181.0,WeatherDisplay:10.37,2014-01-20 17:59:00,
2014-01-20 13:04:00,44.7,30.8,29.66,West,275,12.0,20.0,58,0.00,OVC,,0.00,204.0,WeatherDisplay:10.37,2014-01-20 18:04:00,
2014-01-20 13:09:00,44.7,31.2,29.66,WNW,284,7.0,16.0,59,0.00,OVC,,0.00,204.0,WeatherDisplay:10.37,2014-01-20 18:09:00,
2014-01-20 13:14:00,44.7,30.8,29.66,WNW,289,10.0,16.0,58,0.00,OVC,,0.00,192.0,WeatherDisplay:10.37,2014-01-20 18:14:00,
2014-01-20 13:20:00,44.7,30.8,29.66,WNW,282,9.0,17.0,58,0.00,OVC,,0.00,149.0,WeatherDisplay:10.37,2014-01-20 18:20:00,
2014-01-20 13:24:00,44.6,30.7,29.66,West,273,8.0,13.0,58,0.00,OVC,,0.00,120.0,WeatherDisplay:10.37,2014-01-20 18:24:00,
2014-01-20 13:30:00,44.5,31.0,29.66,West,273,6.0,12.0,59,0.00,OVC,,0.00,127.0,WeatherDisplay:10.37,2014-01-20 18:30:00,
2014-01-20 13:39:00,44.3,30.9,29.67,West,266,8.0,15.0,59,0.00,OVC,,0.00,100.0,WeatherDisplay:10.37,2014-01-20 18:39:00,
2014-01-20 13:44:00,44.3,30.9,29.67,West,267,12.0,18.0,59,0.00,OVC,,0.00,137.0,WeatherDisplay:10.37,2014-01-20 18:44:00,
2014-01-20 13:49:00,44.4,30.5,29.67,West,263,12.0,21.0,58,0.00,OVC,,0.00,127.0,WeatherDisplay:10.37,2014-01-20 18:49:00,
2014-01-20 13:54:00,44.4,30.5,29.67,West,267,8.0,20.0,58,0.00,OVC,,0.00,169.0,WeatherDisplay:10.37,2014-01-20 18:54:00,
2014-01-20 13:59:00,44.4,31.0,29.67,West,265,8.0,17.0,59,0.00,OVC,,0.00,165.0,WeatherDisplay:10.37,2014-01-20 18:59:00,
2014-01-20 14:04:00,44.4,31.0,29.67,West,260,8.0,20.0,59,0.00,OVC,,0.00,128.0,WeatherDisplay:10.37,2014-01-20 19:04:00,
2014-01-20 14:09:00,44.3,30.9,29.68,West,263,7.0,16.0,59,0.00,OVC,,0.00,125.0,WeatherDisplay:10.37,2014-01-20 19:09:00,
2014-01-20 14:14:00,44.2,30.8,29.68,West,269,9.0,18.0,59,0.00,OVC,,0.00,118.0,WeatherDisplay:10.37,2014-01-20 19:14:00,
2014-01-20 14:19:00,44.2,30.3,29.69,West,266,13.0,21.0,58,0.00,OVC,,0.00,86.0,WeatherDisplay:10.37,2014-01-20 19:19:00,
2014-01-20 14:24:00,44.1,30.7,29.69,West,270,8.0,15.0,59,0.00,OVC,,0.00,76.0,WeatherDisplay:10.37,2014-01-20 19:24:00,
2014-01-20 14:29:00,44.0,31.0,29.69,West,269,8.0,18.0,60,0.00,OVC,,0.00,76.0,WeatherDisplay:10.37,2014-01-20 19:29:00,
2014-01-20 14:34:00,43.8,30.8,29.69,West,271,10.0,16.0,60,0.00,OVC,,0.00,98.0,WeatherDisplay:10.37,2014-01-20 19:34:00,
2014-01-20 14:39:00,43.8,30.8,29.70,West,270,7.0,12.0,60,0.00,OVC,,0.00,81.0,WeatherDisplay:10.37,2014-01-20 19:39:00,
2014-01-20 14:45:00,43.8,30.8,29.70,West,271,8.0,14.0,60,0.00,OVC,,0.00,100.0,WeatherDisplay:10.37,2014-01-20 19:45:00,
2014-01-20 14:50:00,43.8,30.8,29.70,West,270,5.0,12.0,60,0.00,OVC,,0.00,86.0,WeatherDisplay:10.37,2014-01-20 19:50:00,
2014-01-20 14:54:00,43.8,31.2,29.70,West,278,6.0,14.0,61,0.00,OVC,,0.00,86.0,WeatherDisplay:10.37,2014-01-20 19:54:00,
2014-01-20 14:59:00,43.7,30.7,29.70,WNW,285,9.0,22.0,60,0.00,OVC,,0.00,148.0,WeatherDisplay:10.37,2014-01-20 19:59:00,
2014-01-20 15:04:00,43.8,30.8,29.71,West,278,12.0,14.0,60,0.00,OVC,,0.00,98.0,WeatherDisplay:10.37,2014-01-20 20:04:00,
2014-01-20 15:09:00,43.7,30.7,29.71,West,278,9.0,14.0,60,0.00,OVC,,0.00,67.0,WeatherDisplay:10.37,2014-01-20 20:09:00,
2014-01-20 15:14:00,43.5,30.5,29.72,WNW,284,7.0,17.0,60,0.00,OVC,,0.00,54.0,WeatherDisplay:10.37,2014-01-20 20:14:00,
2014-01-20 15:19:00,43.3,30.7,29.72,WNW,285,7.0,15.0,61,0.00,OVC,,0.00,44.0,WeatherDisplay:10.37,2014-01-20 20:19:00,
2014-01-20 15:24:00,43.1,30.6,29.73,WNW,283,9.0,14.0,61,0.00,OVC,,0.00,39.0,WeatherDisplay:10.37,2014-01-20 20:24:00,
2014-01-20 15:29:00,42.9,30.4,29.73,WNW,290,8.0,18.0,61,0.00,OVC,,0.00,37.0,WeatherDisplay:10.37,2014-01-20 20:29:00,
2014-01-20 15:34:00,42.7,30.2,29.73,WNW,283,8.0,13.0,61,0.00,OVC,,0.00,30.0,WeatherDisplay:10.37,2014-01-20 20:34:00,
2014-01-20 15:39:00,42.6,30.5,29.74,West,280,10.0,16.0,62,0.00,OVC,,0.00,30.0,WeatherDisplay:10.37,2014-01-20 20:39:00,
2014-01-20 15:44:00,42.5,29.9,29.74,WNW,284,9.0,17.0,61,0.00,OVC,,0.00,32.0,WeatherDisplay:10.37,2014-01-20 20:44:00,
2014-01-20 15:49:00,42.4,29.9,29.75,WNW,285,7.0,15.0,61,0.00,OVC,,0.00,28.0,WeatherDisplay:10.37,2014-01-20 20:49:00,
2014-01-20 15:54:00,42.3,30.2,29.75,WNW,285,8.0,14.0,62,0.00,OVC,,0.00,25.0,WeatherDisplay:10.37,2014-01-20 20:54:00,
2014-01-20 15:59:00,42.2,30.1,29.75,WNW,285,8.0,12.0,62,0.00,OVC,,0.00,21.0,WeatherDisplay:10.37,2014-01-20 20:59:00,
2014-01-20 16:04:00,42.0,30.3,29.75,WNW,285,7.0,12.0,63,0.00,OVC,,0.00,23.0,WeatherDisplay:10.37,2014-01-20 21:04:00,
2014-01-20 16:09:00,41.8,30.5,29.75,WNW,290,5.0,10.0,64,0.00,OVC,,0.00,25.0,WeatherDisplay:10.37,2014-01-20 21:09:00,
2014-01-20 16:14:00,41.7,30.4,29.76,West,281,7.0,14.0,64,0.00,OVC,,0.00,19.0,WeatherDisplay:10.37,2014-01-20 21:14:00,
2014-01-20 16:19:00,41.5,30.2,29.76,West,280,7.0,12.0,64,0.00,OVC,,0.00,18.0,WeatherDisplay:10.37,2014-01-20 21:19:00,
2014-01-20 16:24:00,41.4,30.1,29.77,WNW,283,6.0,12.0,64,0.00,OVC,,0.00,14.0,WeatherDisplay:10.37,2014-01-20 21:24:00,
2014-01-20 16:29:00,41.3,30.0,29.77,WNW,283,7.0,12.0,64,0.00,OVC,,0.00,11.0,WeatherDisplay:10.37,2014-01-20 21:29:00,
2014-01-20 16:34:00,41.2,29.9,29.77,WNW,288,7.0,12.0,64,0.00,OVC,,0.00,9.0,WeatherDisplay:10.37,2014-01-20 21:34:00,
2014-01-20 16:39:00,41.0,29.7,29.77,WNW,289,8.0,13.0,64,0.00,OVC,,0.00,9.0,WeatherDisplay:10.37,2014-01-20 21:39:00,
2014-01-20 16:44:00,40.9,30.0,29.78,WNW,287,6.0,10.0,65,0.00,OVC,,0.00,5.0,WeatherDisplay:10.37,2014-01-20 21:44:00,
2014-01-20 16:49:00,40.8,29.9,29.78,West,281,6.0,12.0,65,0.00,OVC,,0.00,5.0,WeatherDisplay:10.37,2014-01-20 21:49:00,
2014-01-20 16:54:00,40.6,30.1,29.78,West,280,6.0,12.0,66,0.00,OVC,,0.00,5.0,WeatherDisplay:10.37,2014-01-20 21:54:00,
2014-01-20 16:59:00,40.5,30.0,29.79,West,278,5.0,8.0,66,0.00,OVC,,0.00,0.0,WeatherDisplay:10.37,2014-01-20 21:59:00,
2014-01-20 17:04:00,40.4,29.9,29.79,WNW,282,6.0,12.0,66,0.00,OVC,,0.00,0.0,WeatherDisplay:10.37,2014-01-20 22:04:00,
2014-01-20 17:09:00,40.3,29.8,29.79,West,281,3.0,9.0,66,0.00,OVC,,0.00,0.0,WeatherDisplay:10.37,2014-01-20 22:09:00,
2014-01-20 17:14:00,40.2,29.7,29.79,West,279,6.0,10.0,66,0.00,OVC,,0.00,0.0,WeatherDisplay:10.37,2014-01-20 22:14:00,
2014-01-20 17:19:00,40.1,30.0,29.80,WNW,282,5.0,8.0,67,0.00,OVC,,0.00,0.0,WeatherDisplay:10.37,2014-01-20 22:19:00,
2014-01-20 17:24:00,40.0,29.9,29.80,WNW,282,5.0,12.0,67,0.00,OVC,,0.00,0.0,WeatherDisplay:10.37,2014-01-20 22:24:00,
2014-01-20 17:30:00,39.9,29.8,29.81,West,272,5.0,15.0,67,0.00,OVC,,0.00,0.0,WeatherDisplay:10.37,2014-01-20 22:30:00,
2014-01-20 17:34:00,39.8,29.8,29.81,West,273,7.0,9.0,67,0.00,OVC,,0.00,0.0,WeatherDisplay:10.37,2014-01-20 22:34:00,
2014-01-20 17:39:00,39.8,29.7,29.82,West,273,6.0,9.0,67,0.00,OVC,,0.00,0.0,WeatherDisplay:10.37,2014-01-20 22:39:00,
2014-01-20 17:44:00,39.7,29.6,29.82,West,278,5.0,8.0,67,0.00,OVC,,0.00,0.0,WeatherDisplay:10.37,2014-01-20 22:44:00,
2014-01-20 17:49:00,39.7,29.6,29.82,West,280,5.0,9.0,67,0.00,OVC,,0.00,0.0,WeatherDisplay:10.37,2014-01-20 22:49:00,
2014-01-20 17:54:00,39.6,29.5,29.83,West,274,6.0,12.0,67,0.00,OVC,,0.00,0.0,WeatherDisplay:10.37,2014-01-20 22:54:00,
2014-01-20 17:59:00,39.6,29.5,29.83,West,272,7.0,10.0,67,0.00,OVC,,0.00,0.0,WeatherDisplay:10.37,2014-01-20 22:59:00,
2014-01-20 18:04:00,39.5,29.4,29.83,West,271,9.0,13.0,67,0.00,OVC,,0.00,0.0,WeatherDisplay:10.37,2014-01-20 23:04:00,
2014-01-20 18:09:00,39.6,29.5,29.83,West,273,3.0,12.0,67,0.00,OVC,,0.00,0.0,WeatherDisplay:10.37,2014-01-20 23:09:00,
2014-01-20 18:14:00,39.5,29.4,29.83,West,279,6.0,12.0,67,0.00,OVC,,0.00,0.0,WeatherDisplay:10.37,2014-01-20 23:14:00,
2014-01-20 18:19:00,39.4,29.4,29.83,West,276,5.0,9.0,67,0.00,OVC,,0.00,0.0,WeatherDisplay:10.37,2014-01-20 23:19:00,
2014-01-20 18:24:00,39.4,29.3,29.83,West,270,6.0,10.0,67,0.00,OVC,,0.00,0.0,WeatherDisplay:10.37,2014-01-20 23:24:00,
2014-01-20 18:29:00,39.4,29.3,29.84,West,275,6.0,10.0,67,0.00,OVC,,0.00,0.0,WeatherDisplay:10.37,2014-01-20 23:29:00,
2014-01-20 18:34:00,39.3,29.3,29.84,West,275,5.0,12.0,67,0.00,OVC,,0.00,0.0,WeatherDisplay:10.37,2014-01-20 23:34:00,
2014-01-20 18:39:00,39.3,29.3,29.84,West,273,6.0,10.0,67,0.00,OVC,,0.00,0.0,WeatherDisplay:10.37,2014-01-20 23:39:00,
2014-01-20 18:44:00,39.3,29.3,29.84,West,276,3.0,7.0,67,0.00,OVC,,0.00,0.0,WeatherDisplay:10.37,2014-01-20 23:44:00,
2014-01-20 18:49:00,39.3,29.3,29.85,West,273,5.0,10.0,67,0.00,OVC,,0.00,0.0,WeatherDisplay:10.37,2014-01-20 23:49:00,
2014-01-20 18:54:00,39.2,29.5,29.85,West,267,6.0,9.0,68,0.00,OVC,,0.00,0.0,WeatherDisplay:10.37,2014-01-20 23:54:00,
2014-01-20 18:59:00,39.2,29.2,29.85,West,272,3.0,9.0,67,0.00,OVC,,0.00,0.0,WeatherDisplay:10.37,2014-01-20 23:59:00,
2014-01-20 19:04:00,39.1,29.4,29.85,West,274,5.0,7.0,68,0.00,OVC,,0.00,0.0,WeatherDisplay:10.37,2014-01-21 00:04:00,
2014-01-20 19:09:00,39.0,29.4,29.85,West,278,3.0,9.0,68,0.00,OVC,,0.00,0.0,WeatherDisplay:10.37,2014-01-21 00:09:00,
2014-01-20 19:14:00,39.0,29.3,29.85,WNW,283,6.0,9.0,68,0.00,OVC,,0.00,0.0,WeatherDisplay:10.37,2014-01-21 00:14:00,
2014-01-20 19:19:00,38.9,29.2,29.85,WNW,295,6.0,9.0,68,0.00,OVC,,0.00,0.0,WeatherDisplay:10.37,2014-01-21 00:19:00,
2014-01-20 19:24:00,38.9,29.6,29.85,WNW,291,6.0,8.0,69,0.00,OVC,,0.00,0.0,WeatherDisplay:10.37,2014-01-21 00:24:00,
2014-01-20 19:29:00,38.9,29.6,29.85,WNW,286,7.0,10.0,69,0.00,OVC,,0.00,0.0,WeatherDisplay:10.37,2014-01-21 00:29:00,
2014-01-20 19:34:00,38.8,29.5,29.85,WNW,290,8.0,13.0,69,0.00,OVC,,0.00,0.0,WeatherDisplay:10.37,2014-01-21 00:34:00,
2014-01-20 19:39:00,38.8,29.5,29.86,WNW,289,8.0,13.0,69,0.00,OVC,,0.00,0.0,WeatherDisplay:10.37,2014-01-21 00:39:00,
2014-01-20 19:44:00,38.8,29.5,29.86,WNW,290,7.0,12.0,69,0.00,OVC,,0.00,0.0,WeatherDisplay:10.37,2014-01-21 00:44:00,
2014-01-20 19:49:00,38.8,29.8,29.85,WNW,288,6.0,13.0,70,0.00,OVC,,0.00,0.0,WeatherDisplay:10.37,2014-01-21 00:49:00,
2014-01-20 19:54:00,38.7,29.8,29.85,WNW,295,6.0,9.0,70,0.00,OVC,,0.00,0.0,WeatherDisplay:10.37,2014-01-21 00:54:00,
2014-01-20 19:59:00,38.6,29.7,29.85,WNW,289,5.0,9.0,70,0.00,OVC,,0.00,0.0,WeatherDisplay:10.37,2014-01-21 00:59:00,
2014-01-20 20:04:00,38.6,29.7,29.86,WNW,285,5.0,9.0,70,0.00,OVC,,0.00,0.0,WeatherDisplay:10.37,2014-01-21 01:04:00,
2014-01-20 20:09:00,38.4,29.8,29.86,WNW,288,5.0,8.0,71,0.00,OVC,,0.00,0.0,WeatherDisplay:10.37,2014-01-21 01:09:00,
2014-01-20 20:14:00,38.3,29.7,29.86,WNW,288,6.0,8.0,71,0.00,OVC,,0.00,0.0,WeatherDisplay:10.37,2014-01-21 01:14:00,
2014-01-20 20:19:00,38.2,29.7,29.86,WNW,292,3.0,8.0,71,0.00,OVC,,0.00,0.0,WeatherDisplay:10.37,2014-01-21 01:19:00,
2014-01-20 20:24:00,38.2,30.0,29.87,WNW,293,2.0,5.0,72,0.00,OVC,,0.00,0.0,WeatherDisplay:10.37,2014-01-21 01:24:00,
2014-01-20 20:29:00,38.0,29.8,29.87,WNW,286,3.0,7.0,72,0.00,OVC,,0.00,0.0,WeatherDisplay:10.37,2014-01-21 01:29:00,
2014-01-20 20:34:00,37.9,30.0,29.87,WNW,286,5.0,7.0,73,0.00,OVC,,0.00,0.0,WeatherDisplay:10.37,2014-01-21 01:34:00,
2014-01-20 20:39:00,37.8,29.9,29.87,WNW,293,3.0,9.0,73,0.00,OVC,,0.00,0.0,WeatherDisplay:10.37,2014-01-21 01:39:00,
2014-01-20 20:44:00,37.7,29.8,29.87,WNW,295,5.0,9.0,73,0.00,OVC,,0.00,0.0,WeatherDisplay:10.37,2014-01-21 01:44:00,
2014-01-20 20:49:00,37.6,29.7,29.87,WNW,300,3.0,8.0,73,0.00,OVC,,0.00,0.0,WeatherDisplay:10.37,2014-01-21 01:49:00,
2014-01-20 20:54:00,37.5,29.6,29.88,WNW,298,3.0,8.0,73,0.00,OVC,,0.00,0.0,WeatherDisplay:10.37,2014-01-21 01:54:00,
2014-01-20 20:59:00,37.5,29.6,29.87,WNW,293,3.0,7.0,73,0.00,OVC,,0.00,0.0,WeatherDisplay:10.37,2014-01-21 01:59:00,
2014-01-20 21:04:00,37.4,29.5,29.88,WNW,294,2.0,7.0,73,0.00,OVC,,0.00,0.0,WeatherDisplay:10.37,2014-01-21 02:04:00,
2014-01-20 21:09:00,37.4,29.5,29.88,WNW,295,5.0,7.0,73,0.00,OVC,,0.00,0.0,WeatherDisplay:10.37,2014-01-21 02:09:00,
2014-01-20 21:14:00,37.3,29.4,29.88,WNW,290,3.0,7.0,73,0.00,OVC,,0.00,0.0,WeatherDisplay:10.37,2014-01-21 02:14:00,
2014-01-20 21:19:00,37.3,29.4,29.88,WNW,290,2.0,7.0,73,0.00,OVC,,0.00,0.0,WeatherDisplay:10.37,2014-01-21 02:19:00,
2014-01-20 21:24:00,37.2,29.3,29.88,WNW,292,5.0,7.0,73,0.00,OVC,,0.00,0.0,WeatherDisplay:10.37,2014-01-21 02:24:00,
2014-01-20 21:29:00,37.1,29.2,29.88,WNW,295,2.0,8.0,73,0.00,OVC,,0.00,0.0,WeatherDisplay:10.37,2014-01-21 02:29:00,
2014-01-20 21:34:00,37.1,29.2,29.88,WNW,292,2.0,4.0,73,0.00,OVC,,0.00,0.0,WeatherDisplay:10.37,2014-01-21 02:34:00,
2014-01-20 21:39:00,37.1,29.2,29.88,WNW,292,3.0,5.0,73,0.00,OVC,,0.00,0.0,WeatherDisplay:10.37,2014-01-21 02:39:00,
2014-01-20 21:44:00,37.0,29.1,29.88,WNW,293,2.0,4.0,73,0.00,OVC,,0.00,0.0,WeatherDisplay:10.37,2014-01-21 02:44:00,
2014-01-20 21:49:00,36.9,29.1,29.88,WNW,291,3.0,5.0,73,0.00,OVC,,0.00,0.0,WeatherDisplay:10.37,2014-01-21 02:49:00,
2014-01-20 21:54:00,36.9,29.1,29.87,WNW,301,3.0,5.0,73,0.00,OVC,,0.00,0.0,WeatherDisplay:10.37,2014-01-21 02:54:00,
2014-01-20 21:59:00,36.8,29.0,29.87,WNW,298,3.0,5.0,73,0.00,OVC,,0.00,0.0,WeatherDisplay:10.37,2014-01-21 02:59:00,
2014-01-20 22:04:00,36.8,28.6,29.87,WNW,294,3.0,5.0,72,0.00,OVC,,0.00,0.0,WeatherDisplay:10.37,2014-01-21 03:04:00,
2014-01-20 22:09:00,36.7,28.5,29.87,WNW,298,3.0,5.0,72,0.00,OVC,,0.00,0.0,WeatherDisplay:10.37,2014-01-21 03:09:00,
2014-01-20 22:14:00,36.6,28.4,29.87,WNW,302,2.0,3.0,72,0.00,OVC,,0.00,0.0,WeatherDisplay:10.37,2014-01-21 03:14:00,
2014-01-20 22:19:00,36.5,28.3,29.87,WNW,302,2.0,4.0,72,0.00,OVC,,0.00,0.0,WeatherDisplay:10.37,2014-01-21 03:19:00,
2014-01-20 22:24:00,36.4,28.3,29.88,WNW,302,3.0,5.0,72,0.00,OVC,,0.00,0.0,WeatherDisplay:10.37,2014-01-21 03:24:00,
2014-01-20 22:29:00,36.4,28.2,29.88,WNW,299,6.0,7.0,72,0.00,OVC,,0.00,0.0,WeatherDisplay:10.37,2014-01-21 03:29:00,
2014-01-20 22:34:00,36.4,28.2,29.88,WNW,302,3.0,8.0,72,0.00,OVC,,0.00,0.0,WeatherDisplay:10.37,2014-01-21 03:34:00,
2014-01-20 22:39:00,36.4,28.2,29.88,WNW,302,3.0,7.0,72,0.00,OVC,,0.00,0.0,WeatherDisplay:10.37,2014-01-21 03:39:00,
2014-01-20 22:44:00,36.3,28.1,29.88,NW,306,1.0,4.0,72,0.00,OVC,,0.00,0.0,WeatherDisplay:10.37,2014-01-21 03:44:00,
2014-01-20 22:49:00,36.2,28.0,29.88,WNW,301,5.0,7.0,72,0.00,OVC,,0.00,0.0,WeatherDisplay:10.37,2014-01-21 03:49:00,
2014-01-20 22:54:00,36.2,28.4,29.88,NW,304,1.0,5.0,73,0.00,OVC,,0.00,0.0,WeatherDisplay:10.37,2014-01-21 03:54:00,
2014-01-20 22:59:00,36.1,28.3,29.88,NW,308,1.0,5.0,73,0.00,OVC,,0.00,0.0,WeatherDisplay:10.37,2014-01-21 03:59:00,
2014-01-20 23:04:00,36.1,28.3,29.88,NW,309,0.0,2.0,73,0.00,BKN,,0.00,0.0,WeatherDisplay:10.37,2014-01-21 04:04:00,
2014-01-20 23:09:00,36.1,28.3,29.88,NW,318,1.0,5.0,73,0.00,BKN,,0.00,0.0,WeatherDisplay:10.37,2014-01-21 04:09:00,
2014-01-20 23:14:00,36.0,28.2,29.88,WNW,290,0.0,4.0,73,0.00,BKN,,0.00,0.0,WeatherDisplay:10.37,2014-01-21 04:14:00,
2014-01-20 23:19:00,36.0,28.2,29.88,West,271,0.0,2.0,73,0.00,BKN,,0.00,0.0,WeatherDisplay:10.37,2014-01-21 04:19:00,
2014-01-20 23:24:00,36.0,28.5,29.88,West,271,0.0,4.0,74,0.00,BKN,,0.00,0.0,WeatherDisplay:10.37,2014-01-21 04:24:00,
2014-01-20 23:29:00,35.9,28.4,29.88,West,270,0.0,2.0,74,0.00,BKN,,0.00,0.0,WeatherDisplay:10.37,2014-01-21 04:29:00,
2014-01-20 23:34:00,35.9,28.4,29.88,West,269,0.0,2.0,74,0.00,BKN,,0.00,0.0,WeatherDisplay:10.37,2014-01-21 04:34:00,
2014-01-20 23:39:00,35.9,28.4,29.88,West,269,0.0,0.0,74,0.00,BKN,,0.00,0.0,WeatherDisplay:10.37,2014-01-21 04:39:00,
2014-01-20 23:44:00,35.9,28.4,29.88,West,269,0.0,2.0,74,0.00,BKN,,0.00,0.0,WeatherDisplay:10.37,2014-01-21 04:44:00,
2014-01-20 23:49:00,35.8,28.4,29.88,West,269,0.0,0.0,74,0.00,BKN,,0.00,0.0,WeatherDisplay:10.37,2014-01-21 04:49:00,
2014-01-20 23:54:00,35.8,28.3,29.88,West,269,0.0,0.0,74,0.00,BKN,,0.00,0.0,WeatherDisplay:10.37,2014-01-21 04:54:00,
2014-01-20 23:59:00,35.8,28.3,29.87,West,269,0.0,0.0,74,0.00,BKN,,0.00,0.0,WeatherDisplay:10.37,2014-01-21 04:59:00,